sensor_id;sensor_type;location;lat;lon;timestamp;pressure;altitude;pressure_sealevel;temperature;humidity
62926;BME280;55732;52.248;-0.844;2022-07-29T00:00:37;101053.13;;;16.65;57.99
62926;BME280;55732;52.248;-0.844;2022-07-29T00:03:03;101049.80;;;16.62;58.18
62926;BME280;55732;52.248;-0.844;2022-07-29T00:05:28;101048.39;;;16.59;58.31
62926;BME280;55732;52.248;-0.844;2022-07-29T00:07:54;101047.70;;;16.58;58.61
62926;BME280;55732;52.248;-0.844;2022-07-29T00:10:19;101049.17;;;16.55;58.87
62926;BME280;55732;52.248;-0.844;2022-07-29T00:12:45;101045.28;;;16.54;58.82
62926;BME280;55732;52.248;-0.844;2022-07-29T00:15:10;101044.23;;;16.53;58.83
62926;BME280;55732;52.248;-0.844;2022-07-29T00:17:36;101046.21;;;16.52;59.07
62926;BME280;55732;52.248;-0.844;2022-07-29T00:20:02;101048.05;;;16.50;59.14
62926;BME280;55732;52.248;-0.844;2022-07-29T00:22:28;101046.13;;;16.47;59.42
62926;BME280;55732;52.248;-0.844;2022-07-29T00:24:53;101048.16;;;16.42;59.93
62926;BME280;55732;52.248;-0.844;2022-07-29T00:27:19;101045.58;;;16.39;60.37
62926;BME280;55732;52.248;-0.844;2022-07-29T00:29:45;101047.95;;;16.34;60.62
62926;BME280;55732;52.248;-0.844;2022-07-29T00:32:10;101041.88;;;16.27;60.79
62926;BME280;55732;52.248;-0.844;2022-07-29T00:34:36;101050.20;;;16.29;60.87
62926;BME280;55732;52.248;-0.844;2022-07-29T00:37:20;101043.46;;;16.27;61.26
62926;BME280;55732;52.248;-0.844;2022-07-29T00:39:46;101041.04;;;16.23;61.52
62926;BME280;55732;52.248;-0.844;2022-07-29T00:42:11;101044.61;;;16.22;61.73
62926;BME280;55732;52.248;-0.844;2022-07-29T00:44:38;101043.71;;;16.23;61.70
62926;BME280;55732;52.248;-0.844;2022-07-29T00:47:04;101040.70;;;16.22;62.04
62926;BME280;55732;52.248;-0.844;2022-07-29T00:49:29;101033.94;;;16.23;62.04
62926;BME280;55732;52.248;-0.844;2022-07-29T00:51:55;101035.02;;;16.22;62.27
62926;BME280;55732;52.248;-0.844;2022-07-29T00:54:20;101033.06;;;16.22;62.52
62926;BME280;55732;52.248;-0.844;2022-07-29T00:56:46;101031.66;;;16.21;62.50
62926;BME280;55732;52.248;-0.844;2022-07-29T00:59:12;101024.42;;;16.18;62.82
62926;BME280;55732;52.248;-0.844;2022-07-29T01:01:37;101025.89;;;16.16;63.18
62926;BME280;55732;52.248;-0.844;2022-07-29T01:04:03;101026.30;;;16.13;63.16
62926;BME280;55732;52.248;-0.844;2022-07-29T01:06:28;101024.36;;;16.12;63.36
62926;BME280;55732;52.248;-0.844;2022-07-29T01:08:55;101027.05;;;16.10;63.63
62926;BME280;55732;52.248;-0.844;2022-07-29T01:11:21;101030.44;;;16.09;63.73
62926;BME280;55732;52.248;-0.844;2022-07-29T01:13:47;101030.60;;;16.10;63.68
62926;BME280;55732;52.248;-0.844;2022-07-29T01:16:21;101038.41;;;16.11;63.79
62926;BME280;55732;52.248;-0.844;2022-07-29T01:18:54;101041.45;;;16.10;64.05
62926;BME280;55732;52.248;-0.844;2022-07-29T01:21:51;101042.50;;;16.11;64.18
62926;BME280;55732;52.248;-0.844;2022-07-29T01:27:26;101040.65;;;16.15;64.11
62926;BME280;55732;52.248;-0.844;2022-07-29T01:29:55;101037.97;;;16.16;64.23
62926;BME280;55732;52.248;-0.844;2022-07-29T01:32:26;101038.17;;;16.15;64.22
62926;BME280;55732;52.248;-0.844;2022-07-29T01:35:06;101037.48;;;16.13;64.19
62926;BME280;55732;52.248;-0.844;2022-07-29T01:37:44;101037.02;;;16.08;64.33
62926;BME280;55732;52.248;-0.844;2022-07-29T01:40:13;101035.00;;;16.03;64.63
62926;BME280;55732;52.248;-0.844;2022-07-29T01:42:45;101031.17;;;15.97;64.96
62926;BME280;55732;52.248;-0.844;2022-07-29T01:48:10;101033.02;;;15.93;65.09
62926;BME280;55732;52.248;-0.844;2022-07-29T01:50:49;101029.27;;;15.94;65.20
62926;BME280;55732;52.248;-0.844;2022-07-29T01:53:29;101027.50;;;15.94;65.39
62926;BME280;55732;52.248;-0.844;2022-07-29T01:55:58;101027.83;;;15.95;65.59
62926;BME280;55732;52.248;-0.844;2022-07-29T01:58:27;101026.81;;;15.93;65.41
62926;BME280;55732;52.248;-0.844;2022-07-29T02:00:56;101032.34;;;15.92;65.70
62926;BME280;55732;52.248;-0.844;2022-07-29T02:03:23;101034.58;;;15.94;65.57
62926;BME280;55732;52.248;-0.844;2022-07-29T02:05:50;101035.63;;;15.96;65.80
62926;BME280;55732;52.248;-0.844;2022-07-29T02:08:18;101033.67;;;15.96;65.78
62926;BME280;55732;52.248;-0.844;2022-07-29T02:10:46;101037.75;;;15.97;65.78
62926;BME280;55732;52.248;-0.844;2022-07-29T02:13:12;101036.46;;;16.00;65.77
62926;BME280;55732;52.248;-0.844;2022-07-29T02:15:39;101033.12;;;15.98;65.90
62926;BME280;55732;52.248;-0.844;2022-07-29T02:18:14;101029.40;;;15.97;65.93
62926;BME280;55732;52.248;-0.844;2022-07-29T02:20:49;101027.62;;;15.97;65.90
62926;BME280;55732;52.248;-0.844;2022-07-29T02:23:19;101022.63;;;15.99;65.95
62926;BME280;55732;52.248;-0.844;2022-07-29T02:25:48;101020.83;;;16.00;66.04
62926;BME280;55732;52.248;-0.844;2022-07-29T02:28:15;101020.65;;;16.00;66.12
62926;BME280;55732;52.248;-0.844;2022-07-29T02:30:42;101027.42;;;15.99;66.26
62926;BME280;55732;52.248;-0.844;2022-07-29T02:33:10;101022.63;;;15.99;66.20
62926;BME280;55732;52.248;-0.844;2022-07-29T02:35:38;101030.05;;;16.02;66.32
62926;BME280;55732;52.248;-0.844;2022-07-29T02:38:05;101031.09;;;16.03;66.41
62926;BME280;55732;52.248;-0.844;2022-07-29T02:40:51;101037.25;;;16.05;66.34
62926;BME280;55732;52.248;-0.844;2022-07-29T02:43:19;101031.06;;;16.05;66.04
62926;BME280;55732;52.248;-0.844;2022-07-29T02:45:46;101036.09;;;16.01;66.15
62926;BME280;55732;52.248;-0.844;2022-07-29T02:48:15;101038.52;;;15.93;66.55
62926;BME280;55732;52.248;-0.844;2022-07-29T02:50:49;101043.37;;;15.90;66.52
62926;BME280;55732;52.248;-0.844;2022-07-29T02:53:23;101021.55;;;15.76;66.56
62926;BME280;55732;52.248;-0.844;2022-07-29T02:55:59;101044.12;;;15.87;66.59
62926;BME280;55732;52.248;-0.844;2022-07-29T02:58:31;101039.68;;;15.86;66.78
62926;BME280;55732;52.248;-0.844;2022-07-29T03:01:11;101032.77;;;15.87;66.88
62926;BME280;55732;52.248;-0.844;2022-07-29T03:03:37;101032.42;;;15.85;66.73
62926;BME280;55732;52.248;-0.844;2022-07-29T03:06:04;101030.50;;;15.83;66.80
62926;BME280;55732;52.248;-0.844;2022-07-29T03:08:32;101029.83;;;15.81;66.90
62926;BME280;55732;52.248;-0.844;2022-07-29T03:11:00;101027.75;;;15.78;67.07
62926;BME280;55732;52.248;-0.844;2022-07-29T03:13:27;101027.08;;;15.75;66.99
62926;BME280;55732;52.248;-0.844;2022-07-29T03:15:53;101027.84;;;15.72;67.28
62926;BME280;55732;52.248;-0.844;2022-07-29T03:18:20;101022.93;;;15.68;67.33
62926;BME280;55732;52.248;-0.844;2022-07-29T03:20:46;101024.77;;;15.63;67.41
62926;BME280;55732;52.248;-0.844;2022-07-29T03:23:11;101020.55;;;15.61;67.69
62926;BME280;55732;52.248;-0.844;2022-07-29T03:25:43;101017.90;;;15.60;67.73
62926;BME280;55732;52.248;-0.844;2022-07-29T03:28:08;101018.06;;;15.61;67.62
62926;BME280;55732;52.248;-0.844;2022-07-29T03:30:34;101019.66;;;15.60;67.60
62926;BME280;55732;52.248;-0.844;2022-07-29T03:32:59;101023.59;;;15.59;67.72
62926;BME280;55732;52.248;-0.844;2022-07-29T03:35:26;101020.11;;;15.56;67.88
62926;BME280;55732;52.248;-0.844;2022-07-29T03:37:51;101018.16;;;15.52;68.05
62926;BME280;55732;52.248;-0.844;2022-07-29T03:40:21;101021.88;;;15.53;67.97
62926;BME280;55732;52.248;-0.844;2022-07-29T03:42:49;101022.42;;;15.52;68.07
62926;BME280;55732;52.248;-0.844;2022-07-29T03:45:18;101026.33;;;15.53;67.94
62926;BME280;55732;52.248;-0.844;2022-07-29T03:47:55;101026.49;;;15.54;68.24
62926;BME280;55732;52.248;-0.844;2022-07-29T03:50:22;101029.34;;;15.53;68.26
62926;BME280;55732;52.248;-0.844;2022-07-29T03:52:48;101027.96;;;15.50;68.18
62926;BME280;55732;52.248;-0.844;2022-07-29T03:55:15;101034.54;;;15.48;68.21
62926;BME280;55732;52.248;-0.844;2022-07-29T03:57:41;101037.02;;;15.48;68.42
62926;BME280;55732;52.248;-0.844;2022-07-29T04:00:08;101034.20;;;15.47;68.49
62926;BME280;55732;52.248;-0.844;2022-07-29T04:02:34;101033.52;;;15.46;68.73
62926;BME280;55732;52.248;-0.844;2022-07-29T04:05:00;101035.88;;;15.43;68.73
62926;BME280;55732;52.248;-0.844;2022-07-29T04:07:26;101040.67;;;15.42;68.64
62926;BME280;55732;52.248;-0.844;2022-07-29T04:09:51;101036.60;;;15.42;68.65
62926;BME280;55732;52.248;-0.844;2022-07-29T04:12:17;101040.13;;;15.43;68.91
62926;BME280;55732;52.248;-0.844;2022-07-29T04:14:42;101043.48;;;15.45;68.99
62926;BME280;55732;52.248;-0.844;2022-07-29T04:17:08;101044.34;;;15.46;68.84
62926;BME280;55732;52.248;-0.844;2022-07-29T04:19:33;101044.19;;;15.45;68.75
62926;BME280;55732;52.248;-0.844;2022-07-29T04:22:00;101041.21;;;15.42;68.84
62926;BME280;55732;52.248;-0.844;2022-07-29T04:24:25;101039.83;;;15.39;68.99
62926;BME280;55732;52.248;-0.844;2022-07-29T04:26:51;101038.42;;;15.37;69.19
62926;BME280;55732;52.248;-0.844;2022-07-29T04:29:17;101037.78;;;15.33;69.22
62926;BME280;55732;52.248;-0.844;2022-07-29T04:31:43;101035.34;;;15.30;69.27
62926;BME280;55732;52.248;-0.844;2022-07-29T04:34:09;101038.02;;;15.28;69.49
62926;BME280;55732;52.248;-0.844;2022-07-29T04:36:35;101039.11;;;15.26;69.77
62926;BME280;55732;52.248;-0.844;2022-07-29T04:39:00;101039.46;;;15.25;69.87
62926;BME280;55732;52.248;-0.844;2022-07-29T04:41:27;101042.14;;;15.25;69.82
62926;BME280;55732;52.248;-0.844;2022-07-29T04:43:53;101040.71;;;15.26;69.77
62926;BME280;55732;52.248;-0.844;2022-07-29T04:46:18;101036.95;;;15.29;69.80
62926;BME280;55732;52.248;-0.844;2022-07-29T04:48:47;101033.20;;;15.31;69.88
62926;BME280;55732;52.248;-0.844;2022-07-29T04:51:16;101028.59;;;15.31;69.85
62926;BME280;55732;52.248;-0.844;2022-07-29T04:53:42;101026.65;;;15.29;70.01
62926;BME280;55732;52.248;-0.844;2022-07-29T04:56:07;101033.59;;;15.28;70.04
62926;BME280;55732;52.248;-0.844;2022-07-29T04:58:36;101031.83;;;15.27;70.06
62926;BME280;55732;52.248;-0.844;2022-07-29T05:01:02;101036.09;;;15.26;70.11
62926;BME280;55732;52.248;-0.844;2022-07-29T05:03:28;101035.08;;;15.22;70.24
62926;BME280;55732;52.248;-0.844;2022-07-29T05:05:54;101035.47;;;15.21;70.32
62926;BME280;55732;52.248;-0.844;2022-07-29T05:08:19;101035.65;;;15.21;70.41
62926;BME280;55732;52.248;-0.844;2022-07-29T05:10:45;101042.05;;;15.19;70.30
62926;BME280;55732;52.248;-0.844;2022-07-29T05:13:11;101036.20;;;15.19;70.72
62926;BME280;55732;52.248;-0.844;2022-07-29T05:15:36;101039.69;;;15.22;70.71
62926;BME280;55732;52.248;-0.844;2022-07-29T05:18:03;101045.86;;;15.25;70.57
62926;BME280;55732;52.248;-0.844;2022-07-29T05:20:29;101052.40;;;15.27;70.78
62926;BME280;55732;52.248;-0.844;2022-07-29T05:22:57;101054.30;;;15.32;70.64
62926;BME280;55732;52.248;-0.844;2022-07-29T05:25:23;101057.02;;;15.39;70.51
62926;BME280;55732;52.248;-0.844;2022-07-29T05:27:49;101060.30;;;15.46;70.26
62926;BME280;55732;52.248;-0.844;2022-07-29T05:30:15;101064.15;;;15.51;70.32
62926;BME280;55732;52.248;-0.844;2022-07-29T05:32:40;101059.30;;;15.58;70.40
62926;BME280;55732;52.248;-0.844;2022-07-29T05:35:06;101070.21;;;15.64;70.21
62926;BME280;55732;52.248;-0.844;2022-07-29T05:37:33;101068.05;;;15.67;70.13
62926;BME280;55732;52.248;-0.844;2022-07-29T05:39:58;101065.96;;;15.64;70.13
62926;BME280;55732;52.248;-0.844;2022-07-29T05:42:24;101065.80;;;15.63;70.29
62926;BME280;55732;52.248;-0.844;2022-07-29T05:44:50;101069.02;;;15.60;70.29
62926;BME280;55732;52.248;-0.844;2022-07-29T05:47:16;101066.36;;;15.60;70.56
62926;BME280;55732;52.248;-0.844;2022-07-29T05:49:41;101068.95;;;15.66;70.30
62926;BME280;55732;52.248;-0.844;2022-07-29T05:52:07;101067.42;;;15.72;70.42
62926;BME280;55732;52.248;-0.844;2022-07-29T05:54:32;101068.96;;;15.76;70.36
62926;BME280;55732;52.248;-0.844;2022-07-29T05:56:58;101065.76;;;15.78;70.15
62926;BME280;55732;52.248;-0.844;2022-07-29T05:59:23;101073.39;;;15.78;70.32
62926;BME280;55732;52.248;-0.844;2022-07-29T06:01:49;101073.52;;;15.81;70.15
62926;BME280;55732;52.248;-0.844;2022-07-29T06:04:14;101077.15;;;15.87;70.21
62926;BME280;55732;52.248;-0.844;2022-07-29T06:06:39;101078.10;;;15.95;70.20
62926;BME280;55732;52.248;-0.844;2022-07-29T06:09:05;101078.90;;;16.01;70.07
62926;BME280;55732;52.248;-0.844;2022-07-29T06:11:30;101076.12;;;16.08;69.97
62926;BME280;55732;52.248;-0.844;2022-07-29T06:13:56;101076.69;;;16.16;69.98
62926;BME280;55732;52.248;-0.844;2022-07-29T06:16:21;101082.61;;;16.24;69.65
62926;BME280;55732;52.248;-0.844;2022-07-29T06:18:46;101077.49;;;16.31;69.49
62926;BME280;55732;52.248;-0.844;2022-07-29T06:21:12;101082.73;;;16.38;69.39
62926;BME280;55732;52.248;-0.844;2022-07-29T06:23:38;101080.97;;;16.47;69.22
62926;BME280;55732;52.248;-0.844;2022-07-29T06:26:05;101073.39;;;16.53;68.93
62926;BME280;55732;52.248;-0.844;2022-07-29T06:28:31;101073.77;;;16.64;68.74
62926;BME280;55732;52.248;-0.844;2022-07-29T06:30:58;101067.79;;;16.70;68.73
62926;BME280;55732;52.248;-0.844;2022-07-29T06:33:23;101065.83;;;16.70;68.66
62926;BME280;55732;52.248;-0.844;2022-07-29T06:35:49;101061.39;;;16.69;68.67
62926;BME280;55732;52.248;-0.844;2022-07-29T06:38:15;101069.67;;;16.83;68.47
62926;BME280;55732;52.248;-0.844;2022-07-29T06:40:42;101074.27;;;16.94;68.21
62926;BME280;55732;52.248;-0.844;2022-07-29T06:43:37;101073.97;;;17.08;67.95
62926;BME280;55732;52.248;-0.844;2022-07-29T06:46:06;101076.45;;;17.18;67.68
62926;BME280;55732;52.248;-0.844;2022-07-29T06:48:33;101076.14;;;17.15;67.69
62926;BME280;55732;52.248;-0.844;2022-07-29T06:50:59;101079.09;;;17.11;67.88
62926;BME280;55732;52.248;-0.844;2022-07-29T06:53:26;101082.30;;;17.10;67.87
62926;BME280;55732;52.248;-0.844;2022-07-29T06:55:52;101082.41;;;17.22;67.59
62926;BME280;55732;52.248;-0.844;2022-07-29T06:58:17;101083.91;;;17.44;67.45
62926;BME280;55732;52.248;-0.844;2022-07-29T07:00:46;101082.61;;;17.64;66.92
62926;BME280;55732;52.248;-0.844;2022-07-29T07:03:12;101085.02;;;17.84;66.66
62926;BME280;55732;52.248;-0.844;2022-07-29T07:05:38;101082.86;;;18.14;65.95
62926;BME280;55732;52.248;-0.844;2022-07-29T07:08:04;101080.73;;;18.49;65.39
62926;BME280;55732;52.248;-0.844;2022-07-29T07:10:30;101081.33;;;18.82;64.54
62926;BME280;55732;52.248;-0.844;2022-07-29T07:12:56;101087.10;;;18.99;64.27
62926;BME280;55732;52.248;-0.844;2022-07-29T07:15:21;101085.50;;;19.11;63.68
62926;BME280;55732;52.248;-0.844;2022-07-29T07:17:48;101088.10;;;19.20;63.51
62926;BME280;55732;52.248;-0.844;2022-07-29T07:20:15;101085.69;;;19.35;63.12
62926;BME280;55732;52.248;-0.844;2022-07-29T07:22:41;101089.10;;;19.47;62.96
62926;BME280;55732;52.248;-0.844;2022-07-29T07:25:06;101092.94;;;19.57;62.52
62926;BME280;55732;52.248;-0.844;2022-07-29T07:27:32;101090.40;;;19.70;62.33
62926;BME280;55732;52.248;-0.844;2022-07-29T07:29:57;101093.96;;;19.92;61.83
62926;BME280;55732;52.248;-0.844;2022-07-29T07:32:23;101094.45;;;20.00;61.39
62926;BME280;55732;52.248;-0.844;2022-07-29T07:34:48;101097.46;;;20.06;61.18
62926;BME280;55732;52.248;-0.844;2022-07-29T07:37:14;101092.70;;;20.26;60.77
62926;BME280;55732;52.248;-0.844;2022-07-29T07:39:40;101090.16;;;20.49;60.21
62926;BME280;55732;52.248;-0.844;2022-07-29T07:42:06;101095.75;;;20.58;59.84
62926;BME280;55732;52.248;-0.844;2022-07-29T07:44:31;101093.93;;;20.90;59.28
62926;BME280;55732;52.248;-0.844;2022-07-29T07:46:57;101093.74;;;21.85;57.87
62926;BME280;55732;52.248;-0.844;2022-07-29T07:49:22;101091.29;;;23.39;55.01
62926;BME280;55732;52.248;-0.844;2022-07-29T07:51:48;101090.45;;;24.74;52.24
62926;BME280;55732;52.248;-0.844;2022-07-29T07:54:14;101095.24;;;25.63;50.43
62926;BME280;55732;52.248;-0.844;2022-07-29T07:56:39;101099.29;;;25.72;49.59
62926;BME280;55732;52.248;-0.844;2022-07-29T07:59:05;101098.39;;;25.90;48.92
62926;BME280;55732;52.248;-0.844;2022-07-29T08:01:30;101089.97;;;26.43;48.13
62926;BME280;55732;52.248;-0.844;2022-07-29T08:03:55;101084.86;;;26.68;47.06
62926;BME280;55732;52.248;-0.844;2022-07-29T08:06:21;101080.86;;;26.77;45.02
62926;BME280;55732;52.248;-0.844;2022-07-29T08:08:46;101075.70;;;26.75;45.38
62926;BME280;55732;52.248;-0.844;2022-07-29T08:11:12;101075.67;;;26.76;45.13
62926;BME280;55732;52.248;-0.844;2022-07-29T08:13:38;101077.48;;;27.23;44.77
62926;BME280;55732;52.248;-0.844;2022-07-29T08:16:04;101079.20;;;28.25;42.71
62926;BME280;55732;52.248;-0.844;2022-07-29T08:18:41;101082.11;;;28.33;42.27
62926;BME280;55732;52.248;-0.844;2022-07-29T08:21:07;101088.03;;;28.66;41.68
62926;BME280;55732;52.248;-0.844;2022-07-29T08:23:32;101092.05;;;28.66;39.92
62926;BME280;55732;52.248;-0.844;2022-07-29T08:26:07;101088.58;;;28.20;40.32
62926;BME280;55732;52.248;-0.844;2022-07-29T08:28:39;101089.15;;;27.82;40.69
62926;BME280;55732;52.248;-0.844;2022-07-29T08:31:06;101090.64;;;27.41;41.55
62926;BME280;55732;52.248;-0.844;2022-07-29T08:33:32;101088.15;;;27.35;41.52
62926;BME280;55732;52.248;-0.844;2022-07-29T08:35:58;101092.68;;;27.40;41.56
62926;BME280;55732;52.248;-0.844;2022-07-29T08:38:24;101087.23;;;27.35;41.23
62926;BME280;55732;52.248;-0.844;2022-07-29T08:40:51;101084.25;;;27.13;41.48
62926;BME280;55732;52.248;-0.844;2022-07-29T08:43:18;101087.09;;;27.06;41.48
62926;BME280;55732;52.248;-0.844;2022-07-29T08:45:51;101084.74;;;26.91;41.75
62926;BME280;55732;52.248;-0.844;2022-07-29T08:48:19;101087.31;;;26.60;42.10
62926;BME280;55732;52.248;-0.844;2022-07-29T08:50:47;101086.48;;;26.35;42.29
62926;BME280;55732;52.248;-0.844;2022-07-29T08:53:16;101089.83;;;26.30;42.58
62926;BME280;55732;52.248;-0.844;2022-07-29T08:55:47;101089.64;;;26.23;42.17
62926;BME280;55732;52.248;-0.844;2022-07-29T08:58:14;101083.97;;;27.03;41.60
62926;BME280;55732;52.248;-0.844;2022-07-29T09:00:43;101080.90;;;27.96;39.92
62926;BME280;55732;52.248;-0.844;2022-07-29T09:03:14;101082.11;;;28.17;39.11
62926;BME280;55732;52.248;-0.844;2022-07-29T09:05:44;101081.95;;;28.62;38.44
62926;BME280;55732;52.248;-0.844;2022-07-29T09:08:12;101080.44;;;29.45;37.38
62926;BME280;55732;52.248;-0.844;2022-07-29T09:10:38;101076.02;;;31.02;35.32
62926;BME280;55732;52.248;-0.844;2022-07-29T09:13:04;101082.19;;;32.61;33.13
62926;BME280;55732;52.248;-0.844;2022-07-29T09:15:30;101083.55;;;33.69;31.62
62926;BME280;55732;52.248;-0.844;2022-07-29T09:17:56;101088.91;;;34.06;31.28
62926;BME280;55732;52.248;-0.844;2022-07-29T09:20:23;101081.88;;;34.27;30.14
62926;BME280;55732;52.248;-0.844;2022-07-29T09:22:51;101083.98;;;34.16;30.43
62926;BME280;55732;52.248;-0.844;2022-07-29T09:25:38;101080.45;;;34.19;30.07
62926;BME280;55732;52.248;-0.844;2022-07-29T09:28:08;101075.74;;;34.42;29.61
62926;BME280;55732;52.248;-0.844;2022-07-29T09:30:35;101075.42;;;35.33;28.73
62926;BME280;55732;52.248;-0.844;2022-07-29T09:33:02;101073.19;;;35.22;28.28
62926;BME280;55732;52.248;-0.844;2022-07-29T09:35:29;101077.98;;;34.53;27.91
62926;BME280;55732;52.248;-0.844;2022-07-29T09:37:56;101068.89;;;34.25;28.07
62926;BME280;55732;52.248;-0.844;2022-07-29T09:40:24;101069.80;;;34.31;28.10
62926;BME280;55732;52.248;-0.844;2022-07-29T09:42:50;101073.19;;;34.10;27.77
62926;BME280;55732;52.248;-0.844;2022-07-29T09:45:45;101068.49;;;34.54;27.15
62926;BME280;55732;52.248;-0.844;2022-07-29T09:48:16;101064.98;;;35.88;25.57
62926;BME280;55732;52.248;-0.844;2022-07-29T09:50:43;101067.20;;;36.47;24.99
62926;BME280;55732;52.248;-0.844;2022-07-29T09:53:10;101061.23;;;37.03;24.11
62926;BME280;55732;52.248;-0.844;2022-07-29T09:55:50;101059.95;;;37.17;23.21
62926;BME280;55732;52.248;-0.844;2022-07-29T09:58:20;101061.73;;;36.62;23.37
62926;BME280;55732;52.248;-0.844;2022-07-29T10:00:48;101062.10;;;35.26;24.21
62926;BME280;55732;52.248;-0.844;2022-07-29T10:03:14;101057.02;;;34.69;24.97
62926;BME280;55732;52.248;-0.844;2022-07-29T10:05:41;101060.45;;;34.27;25.34
62926;BME280;55732;52.248;-0.844;2022-07-29T10:08:07;101061.29;;;34.24;25.74
62926;BME280;55732;52.248;-0.844;2022-07-29T10:10:36;101058.84;;;34.51;25.23
62926;BME280;55732;52.248;-0.844;2022-07-29T10:13:10;101058.09;;;34.45;25.30
62926;BME280;55732;52.248;-0.844;2022-07-29T10:15:38;101056.27;;;34.52;25.09
62926;BME280;55732;52.248;-0.844;2022-07-29T10:18:07;101058.17;;;34.59;24.98
62926;BME280;55732;52.248;-0.844;2022-07-29T10:20:33;101059.05;;;34.38;25.24
62926;BME280;55732;52.248;-0.844;2022-07-29T10:22:59;101052.66;;;34.42;25.28
62926;BME280;55732;52.248;-0.844;2022-07-29T10:25:25;101057.67;;;34.89;24.77
62926;BME280;55732;52.248;-0.844;2022-07-29T10:27:51;101061.30;;;35.52;24.22
62926;BME280;55732;52.248;-0.844;2022-07-29T10:30:17;101056.54;;;36.12;23.34
62926;BME280;55732;52.248;-0.844;2022-07-29T10:46:39;101059.05;;;32.19;26.86
62926;BME280;55732;52.248;-0.844;2022-07-29T10:49:12;101058.98;;;31.38;27.77
62926;BME280;55732;52.248;-0.844;2022-07-29T10:57:17;101062.63;;;28.90;30.27
62926;BME280;55732;52.248;-0.844;2022-07-29T10:59:48;101063.39;;;28.34;30.68
62926;BME280;55732;52.248;-0.844;2022-07-29T11:04:58;101062.90;;;27.79;31.65
62926;BME280;55732;52.248;-0.844;2022-07-29T11:07:27;101061.91;;;27.63;32.04
62926;BME280;55732;52.248;-0.844;2022-07-29T11:15:05;101062.06;;;27.04;32.64
62926;BME280;55732;52.248;-0.844;2022-07-29T11:20:40;101058.62;;;26.71;33.33
62926;BME280;55732;52.248;-0.844;2022-07-29T11:31:45;101055.45;;;27.11;33.33
62926;BME280;55732;52.248;-0.844;2022-07-29T11:34:26;101052.82;;;27.33;33.34
62926;BME280;55732;52.248;-0.844;2022-07-29T11:39:33;101055.27;;;27.65;32.75
62926;BME280;55732;52.248;-0.844;2022-07-29T11:47:22;101050.12;;;26.89;33.58
62926;BME280;55732;52.248;-0.844;2022-07-29T11:49:48;101047.64;;;26.62;34.00
62926;BME280;55732;52.248;-0.844;2022-07-29T11:52:16;101044.88;;;26.56;34.24
62926;BME280;55732;52.248;-0.844;2022-07-29T11:54:43;101044.61;;;26.58;34.37
62926;BME280;55732;52.248;-0.844;2022-07-29T11:57:09;101046.83;;;26.66;34.12
62926;BME280;55732;52.248;-0.844;2022-07-29T11:59:42;101041.71;;;26.82;34.03
62926;BME280;55732;52.248;-0.844;2022-07-29T12:02:08;101039.54;;;26.94;34.29
62926;BME280;55732;52.248;-0.844;2022-07-29T12:04:54;101031.19;;;27.06;33.77
62926;BME280;55732;52.248;-0.844;2022-07-29T12:07:31;101024.73;;;27.05;33.50
62926;BME280;55732;52.248;-0.844;2022-07-29T12:09:57;101021.48;;;27.11;33.57
62926;BME280;55732;52.248;-0.844;2022-07-29T12:12:24;101023.93;;;27.26;33.36
62926;BME280;55732;52.248;-0.844;2022-07-29T12:14:51;101022.47;;;27.49;33.44
62926;BME280;55732;52.248;-0.844;2022-07-29T12:17:32;101027.71;;;27.72;33.06
62926;BME280;55732;52.248;-0.844;2022-07-29T12:20:00;101028.25;;;27.83;32.87
62926;BME280;55732;52.248;-0.844;2022-07-29T12:22:36;101024.09;;;27.93;32.67
62926;BME280;55732;52.248;-0.844;2022-07-29T12:25:07;101017.87;;;28.08;32.79
62926;BME280;55732;52.248;-0.844;2022-07-29T12:27:35;101017.19;;;28.24;32.56
62926;BME280;55732;52.248;-0.844;2022-07-29T12:30:12;101010.52;;;28.39;32.47
62926;BME280;55732;52.248;-0.844;2022-07-29T12:32:45;101004.27;;;28.66;32.28
62926;BME280;55732;52.248;-0.844;2022-07-29T12:35:12;101002.12;;;28.87;31.93
62926;BME280;55732;52.248;-0.844;2022-07-29T12:37:40;100991.14;;;28.91;31.62
62926;BME280;55732;52.248;-0.844;2022-07-29T12:40:07;100989.31;;;28.91;31.48
62926;BME280;55732;52.248;-0.844;2022-07-29T12:42:34;100993.21;;;29.00;31.82
62926;BME280;55732;52.248;-0.844;2022-07-29T12:45:01;100996.05;;;29.01;31.34
62926;BME280;55732;52.248;-0.844;2022-07-29T12:47:26;101001.14;;;28.93;31.22
62926;BME280;55732;52.248;-0.844;2022-07-29T12:50:10;100992.69;;;28.92;31.29
62926;BME280;55732;52.248;-0.844;2022-07-29T12:52:36;100995.38;;;28.95;31.38
62926;BME280;55732;52.248;-0.844;2022-07-29T12:55:03;100994.58;;;28.88;31.40
62926;BME280;55732;52.248;-0.844;2022-07-29T12:57:29;100991.90;;;28.75;31.29
62926;BME280;55732;52.248;-0.844;2022-07-29T13:00:07;100987.77;;;28.69;31.48
62926;BME280;55732;52.248;-0.844;2022-07-29T13:02:34;100988.25;;;28.75;31.58
62926;BME280;55732;52.248;-0.844;2022-07-29T13:05:00;100989.63;;;28.87;31.56
62926;BME280;55732;52.248;-0.844;2022-07-29T13:07:27;100986.09;;;28.93;31.38
62926;BME280;55732;52.248;-0.844;2022-07-29T13:09:54;100990.39;;;28.96;31.37
62926;BME280;55732;52.248;-0.844;2022-07-29T13:12:34;100993.44;;;28.91;31.41
62926;BME280;55732;52.248;-0.844;2022-07-29T13:15:00;100999.33;;;28.88;31.05
62926;BME280;55732;52.248;-0.844;2022-07-29T13:17:26;100997.20;;;28.38;31.10
62926;BME280;55732;52.248;-0.844;2022-07-29T13:20:12;100999.66;;;27.90;31.78
62926;BME280;55732;52.248;-0.844;2022-07-29T13:22:40;101001.17;;;27.57;32.36
62926;BME280;55732;52.248;-0.844;2022-07-29T13:25:08;101002.21;;;27.35;32.65
62926;BME280;55732;52.248;-0.844;2022-07-29T13:27:34;101008.40;;;27.20;32.91
62926;BME280;55732;52.248;-0.844;2022-07-29T13:30:07;101002.65;;;27.09;32.97
62926;BME280;55732;52.248;-0.844;2022-07-29T13:32:33;101002.55;;;27.02;33.56
62926;BME280;55732;52.248;-0.844;2022-07-29T13:35:05;100998.15;;;26.97;33.81
62926;BME280;55732;52.248;-0.844;2022-07-29T13:37:32;100999.58;;;26.91;34.00